sensor_id;sensor_type;location;lat;lon;timestamp;P1;durP1;ratioP1;P2;durP2;ratioP2
28447;SDS011;15675;52.870;-1.416;2022-10-24T00:02:16;6.30;;;3.53;;
28447;SDS011;15675;52.870;-1.416;2022-10-24T00:04:42;8.68;;;4.25;;
28447;SDS011;15675;52.870;-1.416;2022-10-24T00:07:08;14.30;;;4.45;;
28447;SDS011;15675;52.870;-1.416;2022-10-24T00:09:34;5.10;;;3.63;;
28447;SDS011;15675;52.870;-1.416;2022-10-24T00:12:01;6.47;;;4.03;;
28447;SDS011;15675;52.870;-1.416;2022-10-24T00:14:27;10.05;;;4.68;;
28447;SDS011;15675;52.870;-1.416;2022-10-24T00:16:53;8.60;;;4.70;;
28447;SDS011;15675;52.870;-1.416;2022-10-24T00:19:18;9.00;;;4.88;;
28447;SDS011;15675;52.870;-1.416;2022-10-24T00:21:44;9.70;;;4.68;;
28447;SDS011;15675;52.870;-1.416;2022-10-24T00:24:10;8.48;;;5.32;;
28447;SDS011;15675;52.870;-1.416;2022-10-24T00:26:36;13.75;;;5.40;;
28447;SDS011;15675;52.870;-1.416;2022-10-24T00:29:01;10.30;;;5.82;;
28447;SDS011;15675;52.870;-1.416;2022-10-24T00:31:27;7.80;;;5.60;;
28447;SDS011;15675;52.870;-1.416;2022-10-24T00:33:53;9.68;;;5.90;;
28447;SDS011;15675;52.870;-1.416;2022-10-24T00:36:21;13.85;;;5.45;;
28447;SDS011;15675;52.870;-1.416;2022-10-24T00:38:48;12.32;;;6.00;;
28447;SDS011;15675;52.870;-1.416;2022-10-24T00:41:14;10.85;;;6.13;;
28447;SDS011;15675;52.870;-1.416;2022-10-24T00:43:43;12.88;;;6.10;;
28447;SDS011;15675;52.870;-1.416;2022-10-24T00:46:08;11.02;;;6.05;;
28447;SDS011;15675;52.870;-1.416;2022-10-24T00:48:52;11.15;;;5.65;;
28447;SDS011;15675;52.870;-1.416;2022-10-24T00:51:23;9.15;;;4.63;;
28447;SDS011;15675;52.870;-1.416;2022-10-24T00:53:56;20.83;;;4.72;;
28447;SDS011;15675;52.870;-1.416;2022-10-24T00:56:25;7.75;;;5.30;;
28447;SDS011;15675;52.870;-1.416;2022-10-24T00:58:56;13.32;;;5.65;;
28447;SDS011;15675;52.870;-1.416;2022-10-24T01:01:24;13.73;;;5.70;;
28447;SDS011;15675;52.870;-1.416;2022-10-24T01:03:50;16.13;;;6.78;;
28447;SDS011;15675;52.870;-1.416;2022-10-24T01:22:09;10.68;;;6.35;;
28447;SDS011;15675;52.870;-1.416;2022-10-24T01:24:53;17.60;;;5.90;;
28447;SDS011;15675;52.870;-1.416;2022-10-24T01:27:38;9.57;;;5.93;;
28447;SDS011;15675;52.870;-1.416;2022-10-24T01:30:11;11.00;;;5.80;;
28447;SDS011;15675;52.870;-1.416;2022-10-24T01:32:40;12.05;;;4.60;;
28447;SDS011;15675;52.870;-1.416;2022-10-24T01:43:13;14.20;;;8.40;;
28447;SDS011;15675;52.870;-1.416;2022-10-24T01:45:41;11.27;;;8.52;;
28447;SDS011;15675;52.870;-1.416;2022-10-24T01:48:13;11.45;;;7.00;;
28447;SDS011;15675;52.870;-1.416;2022-10-24T01:50:41;10.95;;;5.88;;
28447;SDS011;15675;52.870;-1.416;2022-10-24T01:53:11;11.70;;;6.07;;
28447;SDS011;15675;52.870;-1.416;2022-10-24T01:55:37;12.55;;;5.75;;
28447;SDS011;15675;52.870;-1.416;2022-10-24T01:58:05;8.25;;;5.20;;
28447;SDS011;15675;52.870;-1.416;2022-10-24T02:00:31;10.75;;;5.15;;
28447;SDS011;15675;52.870;-1.416;2022-10-24T02:02:58;8.70;;;5.00;;
28447;SDS011;15675;52.870;-1.416;2022-10-24T02:05:35;10.27;;;5.07;;
28447;SDS011;15675;52.870;-1.416;2022-10-24T02:08:07;9.50;;;5.72;;
28447;SDS011;15675;52.870;-1.416;2022-10-24T02:10:38;8.98;;;5.57;;
28447;SDS011;15675;52.870;-1.416;2022-10-24T02:13:18;11.53;;;5.97;;
28447;SDS011;15675;52.870;-1.416;2022-10-24T02:15:52;11.23;;;6.63;;
28447;SDS011;15675;52.870;-1.416;2022-10-24T02:18:21;13.25;;;6.32;;
28447;SDS011;15675;52.870;-1.416;2022-10-24T02:20:52;9.77;;;6.38;;
28447;SDS011;15675;52.870;-1.416;2022-10-24T02:25:51;10.70;;;5.63;;
28447;SDS011;15675;52.870;-1.416;2022-10-24T02:28:22;11.35;;;6.45;;
28447;SDS011;15675;52.870;-1.416;2022-10-24T02:30:51;13.35;;;7.05;;
28447;SDS011;15675;52.870;-1.416;2022-10-24T02:33:21;14.63;;;7.15;;
28447;SDS011;15675;52.870;-1.416;2022-10-24T02:35:47;14.13;;;7.38;;
28447;SDS011;15675;52.870;-1.416;2022-10-24T02:38:16;15.73;;;8.00;;
28447;SDS011;15675;52.870;-1.416;2022-10-24T02:40:46;13.55;;;7.82;;
28447;SDS011;15675;52.870;-1.416;2022-10-24T02:43:15;14.15;;;8.98;;
28447;SDS011;15675;52.870;-1.416;2022-10-24T02:45:45;13.65;;;9.18;;
28447;SDS011;15675;52.870;-1.416;2022-10-24T02:48:11;16.25;;;9.18;;
28447;SDS011;15675;52.870;-1.416;2022-10-24T02:50:40;16.25;;;9.32;;
28447;SDS011;15675;52.870;-1.416;2022-10-24T02:53:13;13.05;;;8.52;;
28447;SDS011;15675;52.870;-1.416;2022-10-24T02:55:39;15.07;;;9.20;;
28447;SDS011;15675;52.870;-1.416;2022-10-24T02:58:05;14.32;;;8.55;;
28447;SDS011;15675;52.870;-1.416;2022-10-24T03:00:31;17.35;;;9.10;;
28447;SDS011;15675;52.870;-1.416;2022-10-24T03:02:57;19.65;;;9.18;;
28447;SDS011;15675;52.870;-1.416;2022-10-24T03:05:22;15.85;;;8.27;;
28447;SDS011;15675;52.870;-1.416;2022-10-24T03:07:48;14.05;;;7.85;;
28447;SDS011;15675;52.870;-1.416;2022-10-24T03:10:13;14.75;;;8.00;;
28447;SDS011;15675;52.870;-1.416;2022-10-24T03:12:39;13.43;;;7.50;;
28447;SDS011;15675;52.870;-1.416;2022-10-24T03:15:05;10.60;;;6.97;;
28447;SDS011;15675;52.870;-1.416;2022-10-24T03:17:30;13.98;;;7.57;;
28447;SDS011;15675;52.870;-1.416;2022-10-24T03:19:56;14.02;;;6.65;;
28447;SDS011;15675;52.870;-1.416;2022-10-24T03:22:21;14.27;;;7.50;;
28447;SDS011;15675;52.870;-1.416;2022-10-24T03:24:47;13.68;;;7.10;;
28447;SDS011;15675;52.870;-1.416;2022-10-24T03:27:13;12.18;;;6.30;;
28447;SDS011;15675;52.870;-1.416;2022-10-24T03:29:38;13.50;;;7.15;;
28447;SDS011;15675;52.870;-1.416;2022-10-24T03:32:04;11.52;;;6.30;;
28447;SDS011;15675;52.870;-1.416;2022-10-24T03:34:30;10.30;;;6.68;;
28447;SDS011;15675;52.870;-1.416;2022-10-24T03:36:56;12.40;;;8.48;;
28447;SDS011;15675;52.870;-1.416;2022-10-24T03:39:21;12.30;;;7.82;;
28447;SDS011;15675;52.870;-1.416;2022-10-24T03:41:47;13.07;;;8.25;;
28447;SDS011;15675;52.870;-1.416;2022-10-24T03:44:12;13.60;;;9.38;;
28447;SDS011;15675;52.870;-1.416;2022-10-24T03:46:38;14.63;;;8.32;;
28447;SDS011;15675;52.870;-1.416;2022-10-24T03:49:03;13.50;;;9.18;;
28447;SDS011;15675;52.870;-1.416;2022-10-24T03:51:29;21.55;;;10.32;;
28447;SDS011;15675;52.870;-1.416;2022-10-24T03:53:54;13.07;;;9.77;;
28447;SDS011;15675;52.870;-1.416;2022-10-24T03:56:20;15.82;;;10.23;;
28447;SDS011;15675;52.870;-1.416;2022-10-24T03:58:45;15.23;;;9.63;;
28447;SDS011;15675;52.870;-1.416;2022-10-24T04:01:11;19.77;;;10.18;;
28447;SDS011;15675;52.870;-1.416;2022-10-24T04:03:41;18.77;;;11.82;;
28447;SDS011;15675;52.870;-1.416;2022-10-24T04:06:08;16.23;;;11.10;;
28447;SDS011;15675;52.870;-1.416;2022-10-24T04:08:33;18.98;;;10.32;;
28447;SDS011;15675;52.870;-1.416;2022-10-24T04:10:59;17.80;;;10.32;;
28447;SDS011;15675;52.870;-1.416;2022-10-24T04:13:24;18.02;;;11.38;;
28447;SDS011;15675;52.870;-1.416;2022-10-24T04:15:50;17.88;;;10.43;;
28447;SDS011;15675;52.870;-1.416;2022-10-24T04:18:15;15.02;;;10.20;;
28447;SDS011;15675;52.870;-1.416;2022-10-24T04:20:41;18.33;;;9.73;;
28447;SDS011;15675;52.870;-1.416;2022-10-24T04:23:06;19.02;;;8.65;;
28447;SDS011;15675;52.870;-1.416;2022-10-24T04:25:32;21.10;;;8.65;;
28447;SDS011;15675;52.870;-1.416;2022-10-24T04:27:57;17.85;;;7.55;;
28447;SDS011;15675;52.870;-1.416;2022-10-24T04:30:23;16.38;;;6.78;;
28447;SDS011;15675;52.870;-1.416;2022-10-24T04:32:49;17.40;;;5.78;;
28447;SDS011;15675;52.870;-1.416;2022-10-24T04:35:14;16.98;;;5.85;;
28447;SDS011;15675;52.870;-1.416;2022-10-24T04:37:40;15.40;;;5.28;;
28447;SDS011;15675;52.870;-1.416;2022-10-24T04:40:06;14.32;;;5.80;;
28447;SDS011;15675;52.870;-1.416;2022-10-24T04:42:32;13.55;;;5.22;;
28447;SDS011;15675;52.870;-1.416;2022-10-24T04:44:57;15.85;;;5.03;;
28447;SDS011;15675;52.870;-1.416;2022-10-24T04:47:23;17.77;;;5.07;;
28447;SDS011;15675;52.870;-1.416;2022-10-24T04:49:48;19.25;;;5.00;;
28447;SDS011;15675;52.870;-1.416;2022-10-24T04:52:14;15.90;;;4.85;;
28447;SDS011;15675;52.870;-1.416;2022-10-24T04:54:40;16.77;;;4.03;;
28447;SDS011;15675;52.870;-1.416;2022-10-24T04:57:05;17.45;;;5.07;;
28447;SDS011;15675;52.870;-1.416;2022-10-24T04:59:31;16.85;;;5.90;;
28447;SDS011;15675;52.870;-1.416;2022-10-24T05:01:56;20.25;;;4.88;;
28447;SDS011;15675;52.870;-1.416;2022-10-24T05:04:21;20.00;;;4.90;;
28447;SDS011;15675;52.870;-1.416;2022-10-24T05:06:47;23.73;;;4.45;;
28447;SDS011;15675;52.870;-1.416;2022-10-24T05:09:13;16.35;;;4.93;;
28447;SDS011;15675;52.870;-1.416;2022-10-24T05:11:39;18.77;;;5.40;;
28447;SDS011;15675;52.870;-1.416;2022-10-24T05:14:05;24.77;;;5.40;;
28447;SDS011;15675;52.870;-1.416;2022-10-24T05:16:30;15.95;;;4.45;;
28447;SDS011;15675;52.870;-1.416;2022-10-24T05:18:56;21.73;;;4.45;;
28447;SDS011;15675;52.870;-1.416;2022-10-24T05:21:21;12.88;;;3.97;;
28447;SDS011;15675;52.870;-1.416;2022-10-24T05:23:47;18.45;;;4.45;;
28447;SDS011;15675;52.870;-1.416;2022-10-24T05:26:12;16.20;;;3.72;;
28447;SDS011;15675;52.870;-1.416;2022-10-24T05:28:38;13.90;;;5.30;;
28447;SDS011;15675;52.870;-1.416;2022-10-24T05:31:03;16.98;;;3.70;;
28447;SDS011;15675;52.870;-1.416;2022-10-24T05:33:29;19.73;;;4.60;;
28447;SDS011;15675;52.870;-1.416;2022-10-24T05:35:54;13.52;;;3.72;;
28447;SDS011;15675;52.870;-1.416;2022-10-24T05:38:20;13.93;;;3.50;;
28447;SDS011;15675;52.870;-1.416;2022-10-24T05:40:45;11.88;;;3.80;;
28447;SDS011;15675;52.870;-1.416;2022-10-24T05:43:13;16.63;;;3.40;;
28447;SDS011;15675;52.870;-1.416;2022-10-24T05:45:40;14.23;;;3.80;;
28447;SDS011;15675;52.870;-1.416;2022-10-24T05:48:06;14.40;;;3.90;;
28447;SDS011;15675;52.870;-1.416;2022-10-24T05:50:32;12.02;;;3.67;;
28447;SDS011;15675;52.870;-1.416;2022-10-24T05:52:59;9.85;;;2.92;;
28447;SDS011;15675;52.870;-1.416;2022-10-24T05:55:24;16.15;;;3.88;;
28447;SDS011;15675;52.870;-1.416;2022-10-24T05:57:50;11.65;;;3.85;;
28447;SDS011;15675;52.870;-1.416;2022-10-24T06:00:15;15.20;;;3.58;;
28447;SDS011;15675;52.870;-1.416;2022-10-24T06:02:41;16.98;;;3.88;;
28447;SDS011;15675;52.870;-1.416;2022-10-24T06:05:07;11.35;;;3.38;;
28447;SDS011;15675;52.870;-1.416;2022-10-24T06:07:34;14.32;;;3.72;;
28447;SDS011;15675;52.870;-1.416;2022-10-24T06:10:00;17.08;;;4.03;;
28447;SDS011;15675;52.870;-1.416;2022-10-24T06:12:26;16.70;;;4.13;;
28447;SDS011;15675;52.870;-1.416;2022-10-24T06:14:56;10.50;;;4.25;;
28447;SDS011;15675;52.870;-1.416;2022-10-24T06:17:22;16.52;;;3.83;;
28447;SDS011;15675;52.870;-1.416;2022-10-24T06:19:47;14.30;;;4.07;;
28447;SDS011;15675;52.870;-1.416;2022-10-24T06:22:15;9.35;;;3.72;;
28447;SDS011;15675;52.870;-1.416;2022-10-24T06:24:40;14.10;;;4.35;;
28447;SDS011;15675;52.870;-1.416;2022-10-24T06:27:06;13.98;;;4.07;;
28447;SDS011;15675;52.870;-1.416;2022-10-24T06:29:31;16.35;;;5.22;;
28447;SDS011;15675;52.870;-1.416;2022-10-24T06:31:57;14.05;;;4.25;;
28447;SDS011;15675;52.870;-1.416;2022-10-24T06:34:23;15.73;;;4.40;;
28447;SDS011;15675;52.870;-1.416;2022-10-24T06:36:49;15.48;;;5.53;;
28447;SDS011;15675;52.870;-1.416;2022-10-24T06:39:14;16.80;;;4.90;;
28447;SDS011;15675;52.870;-1.416;2022-10-24T06:41:39;14.35;;;5.03;;
28447;SDS011;15675;52.870;-1.416;2022-10-24T06:44:05;20.77;;;5.78;;
28447;SDS011;15675;52.870;-1.416;2022-10-24T06:46:30;13.73;;;5.25;;
28447;SDS011;15675;52.870;-1.416;2022-10-24T06:48:56;19.55;;;6.57;;
28447;SDS011;15675;52.870;-1.416;2022-10-24T06:51:22;18.48;;;5.75;;
28447;SDS011;15675;52.870;-1.416;2022-10-24T06:53:48;12.70;;;4.93;;
28447;SDS011;15675;52.870;-1.416;2022-10-24T06:56:14;12.77;;;4.80;;
28447;SDS011;15675;52.870;-1.416;2022-10-24T06:58:39;11.88;;;3.55;;
28447;SDS011;15675;52.870;-1.416;2022-10-24T07:01:06;10.43;;;3.78;;
28447;SDS011;15675;52.870;-1.416;2022-10-24T07:03:33;12.23;;;3.40;;
28447;SDS011;15675;52.870;-1.416;2022-10-24T07:06:03;9.70;;;3.42;;
28447;SDS011;15675;52.870;-1.416;2022-10-24T07:08:39;15.25;;;3.13;;
28447;SDS011;15675;52.870;-1.416;2022-10-24T07:11:04;6.25;;;2.40;;
28447;SDS011;15675;52.870;-1.416;2022-10-24T07:13:30;12.73;;;3.53;;
28447;SDS011;15675;52.870;-1.416;2022-10-24T07:15:55;8.05;;;2.20;;
28447;SDS011;15675;52.870;-1.416;2022-10-24T07:18:21;10.38;;;2.47;;
28447;SDS011;15675;52.870;-1.416;2022-10-24T07:20:46;10.10;;;2.38;;
28447;SDS011;15675;52.870;-1.416;2022-10-24T07:23:12;13.52;;;2.50;;
28447;SDS011;15675;52.870;-1.416;2022-10-24T07:25:39;10.43;;;2.63;;
28447;SDS011;15675;52.870;-1.416;2022-10-24T07:28:06;10.68;;;2.55;;
28447;SDS011;15675;52.870;-1.416;2022-10-24T07:30:32;11.07;;;2.85;;
28447;SDS011;15675;52.870;-1.416;2022-10-24T07:32:58;11.02;;;2.67;;
28447;SDS011;15675;52.870;-1.416;2022-10-24T07:35:23;9.93;;;2.70;;
28447;SDS011;15675;52.870;-1.416;2022-10-24T07:37:49;13.80;;;3.30;;
28447;SDS011;15675;52.870;-1.416;2022-10-24T07:40:14;7.05;;;2.50;;
28447;SDS011;15675;52.870;-1.416;2022-10-24T07:42:40;12.80;;;3.55;;
28447;SDS011;15675;52.870;-1.416;2022-10-24T07:45:06;13.15;;;3.05;;
28447;SDS011;15675;52.870;-1.416;2022-10-24T07:47:32;12.43;;;2.50;;
28447;SDS011;15675;52.870;-1.416;2022-10-24T07:49:58;11.05;;;2.58;;
28447;SDS011;15675;52.870;-1.416;2022-10-24T07:52:23;8.77;;;2.33;;
28447;SDS011;15675;52.870;-1.416;2022-10-24T07:54:51;9.85;;;2.90;;
28447;SDS011;15675;52.870;-1.416;2022-10-24T07:57:18;6.03;;;2.30;;
28447;SDS011;15675;52.870;-1.416;2022-10-24T07:59:43;11.85;;;2.65;;
28447;SDS011;15675;52.870;-1.416;2022-10-24T08:02:10;12.18;;;2.30;;
28447;SDS011;15675;52.870;-1.416;2022-10-24T08:04:37;6.95;;;2.65;;
28447;SDS011;15675;52.870;-1.416;2022-10-24T08:07:02;6.93;;;2.13;;
28447;SDS011;15675;52.870;-1.416;2022-10-24T08:09:28;8.85;;;2.30;;
28447;SDS011;15675;52.870;-1.416;2022-10-24T08:11:53;10.60;;;2.40;;
28447;SDS011;15675;52.870;-1.416;2022-10-24T08:14:19;6.70;;;2.33;;
28447;SDS011;15675;52.870;-1.416;2022-10-24T08:16:45;7.68;;;2.00;;
28447;SDS011;15675;52.870;-1.416;2022-10-24T08:19:10;6.63;;;2.17;;
28447;SDS011;15675;52.870;-1.416;2022-10-24T08:21:37;12.85;;;2.67;;
28447;SDS011;15675;52.870;-1.416;2022-10-24T08:24:02;7.38;;;2.17;;
28447;SDS011;15675;52.870;-1.416;2022-10-24T08:26:28;8.18;;;2.22;;
28447;SDS011;15675;52.870;-1.416;2022-10-24T08:28:54;10.30;;;2.47;;
28447;SDS011;15675;52.870;-1.416;2022-10-24T08:31:20;4.35;;;2.10;;
28447;SDS011;15675;52.870;-1.416;2022-10-24T08:33:47;8.38;;;1.77;;
28447;SDS011;15675;52.870;-1.416;2022-10-24T08:36:34;7.47;;;2.15;;
28447;SDS011;15675;52.870;-1.416;2022-10-24T08:39:00;6.68;;;2.40;;
28447;SDS011;15675;52.870;-1.416;2022-10-24T08:44:55;8.70;;;2.47;;
28447;SDS011;15675;52.870;-1.416;2022-10-24T08:47:18;6.80;;;2.08;;
28447;SDS011;15675;52.870;-1.416;2022-10-24T08:50:05;12.82;;;2.58;;
28447;SDS011;15675;52.870;-1.416;2022-10-24T08:52:38;10.10;;;2.30;;
28447;SDS011;15675;52.870;-1.416;2022-10-24T08:55:14;8.20;;;2.60;;
28447;SDS011;15675;52.870;-1.416;2022-10-24T08:57:44;12.07;;;2.70;;
28447;SDS011;15675;52.870;-1.416;2022-10-24T09:00:20;9.57;;;2.67;;
28447;SDS011;15675;52.870;-1.416;2022-10-24T09:02:50;9.93;;;2.55;;
28447;SDS011;15675;52.870;-1.416;2022-10-24T09:05:37;18.67;;;3.20;;
28447;SDS011;15675;52.870;-1.416;2022-10-24T09:08:20;11.70;;;2.70;;
28447;SDS011;15675;52.870;-1.416;2022-10-24T09:10:56;10.20;;;2.97;;
28447;SDS011;15675;52.870;-1.416;2022-10-24T09:13:24;6.55;;;2.00;;
28447;SDS011;15675;52.870;-1.416;2022-10-24T09:15:51;9.25;;;1.90;;
28447;SDS011;15675;52.870;-1.416;2022-10-24T09:18:21;10.00;;;2.05;;
28447;SDS011;15675;52.870;-1.416;2022-10-24T09:20:51;16.95;;;2.78;;
28447;SDS011;15675;52.870;-1.416;2022-10-24T09:23:18;7.07;;;2.13;;
28447;SDS011;15675;52.870;-1.416;2022-10-24T09:25:53;9.10;;;2.35;;
28447;SDS011;15675;52.870;-1.416;2022-10-24T09:28:20;10.57;;;2.17;;
28447;SDS011;15675;52.870;-1.416;2022-10-24T09:30:47;11.98;;;2.60;;
28447;SDS011;15675;52.870;-1.416;2022-10-24T09:33:26;6.72;;;2.15;;
28447;SDS011;15675;52.870;-1.416;2022-10-24T09:35:59;14.70;;;2.90;;
28447;SDS011;15675;52.870;-1.416;2022-10-24T09:38:30;15.30;;;2.60;;
28447;SDS011;15675;52.870;-1.416;2022-10-24T09:40:59;9.40;;;1.95;;
28447;SDS011;15675;52.870;-1.416;2022-10-24T09:46:12;14.25;;;2.40;;
28447;SDS011;15675;52.870;-1.416;2022-10-24T09:49:24;18.40;;;2.03;;
28447;SDS011;15675;52.870;-1.416;2022-10-24T09:54:26;18.67;;;2.78;;
28447;SDS011;15675;52.870;-1.416;2022-10-24T09:56:58;6.03;;;1.58;;
28447;SDS011;15675;52.870;-1.416;2022-10-24T09:59:37;9.60;;;2.10;;
28447;SDS011;15675;52.870;-1.416;2022-10-24T10:04:39;9.15;;;1.98;;
28447;SDS011;15675;52.870;-1.416;2022-10-24T10:07:39;7.40;;;2.05;;
28447;SDS011;15675;52.870;-1.416;2022-10-24T10:10:00;9.93;;;2.38;;
28447;SDS011;15675;52.870;-1.416;2022-10-24T10:14:55;13.98;;;2.25;;
28447;SDS011;15675;52.870;-1.416;2022-10-24T10:17:21;10.23;;;2.53;;
28447;SDS011;15675;52.870;-1.416;2022-10-24T10:19:49;5.60;;;1.88;;
28447;SDS011;15675;52.870;-1.416;2022-10-24T10:22:27;11.93;;;2.35;;
28447;SDS011;15675;52.870;-1.416;2022-10-24T10:24:55;14.40;;;2.53;;
28447;SDS011;15675;52.870;-1.416;2022-10-24T10:27:35;10.13;;;2.10;;
28447;SDS011;15675;52.870;-1.416;2022-10-24T10:35:18;11.05;;;2.20;;
28447;SDS011;15675;52.870;-1.416;2022-10-24T10:37:51;14.40;;;2.97;;
28447;SDS011;15675;52.870;-1.416;2022-10-24T10:40:44;7.78;;;1.58;;
28447;SDS011;15675;52.870;-1.416;2022-10-24T10:46:25;7.55;;;2.17;;
28447;SDS011;15675;52.870;-1.416;2022-10-24T10:51:57;6.18;;;1.77;;
28447;SDS011;15675;52.870;-1.416;2022-10-24T10:57:07;8.50;;;1.80;;
28447;SDS011;15675;52.870;-1.416;2022-10-24T11:10:33;3.83;;;1.27;;
28447;SDS011;15675;52.870;-1.416;2022-10-24T11:13:04;4.75;;;1.42;;
28447;SDS011;15675;52.870;-1.416;2022-10-24T11:15:39;6.95;;;1.45;;
28447;SDS011;15675;52.870;-1.416;2022-10-24T11:20:57;7.55;;;1.48;;
28447;SDS011;15675;52.870;-1.416;2022-10-24T11:23:36;11.98;;;1.63;;
28447;SDS011;15675;52.870;-1.416;2022-10-24T11:26:10;7.10;;;1.50;;
28447;SDS011;15675;52.870;-1.416;2022-10-24T11:28:45;4.22;;;1.58;;
28447;SDS011;15675;52.870;-1.416;2022-10-24T11:36:41;9.00;;;2.08;;
28447;SDS011;15675;52.870;-1.416;2022-10-24T11:41:41;7.95;;;1.77;;
28447;SDS011;15675;52.870;-1.416;2022-10-24T11:46:50;8.65;;;2.08;;
28447;SDS011;15675;52.870;-1.416;2022-10-24T11:49:32;6.85;;;1.80;;
28447;SDS011;15675;52.870;-1.416;2022-10-24T11:52:07;10.18;;;2.00;;
28447;SDS011;15675;52.870;-1.416;2022-10-24T11:54:50;9.50;;;2.25;;
28447;SDS011;15675;52.870;-1.416;2022-10-24T11:57:21;7.82;;;2.28;;
28447;SDS011;15675;52.870;-1.416;2022-10-24T11:59:53;5.78;;;1.83;;
28447;SDS011;15675;52.870;-1.416;2022-10-24T12:13:26;12.43;;;1.98;;
28447;SDS011;15675;52.870;-1.416;2022-10-24T12:18:31;6.40;;;1.80;;
28447;SDS011;15675;52.870;-1.416;2022-10-24T12:21:01;8.32;;;1.30;;
28447;SDS011;15675;52.870;-1.416;2022-10-24T12:23:30;8.65;;;1.60;;
28447;SDS011;15675;52.870;-1.416;2022-10-24T12:28:43;10.15;;;2.03;;
28447;SDS011;15675;52.870;-1.416;2022-10-24T12:31:19;8.23;;;1.73;;
28447;SDS011;15675;52.870;-1.416;2022-10-24T12:34:29;6.25;;;1.73;;
28447;SDS011;15675;52.870;-1.416;2022-10-24T12:42:14;6.72;;;1.58;;
28447;SDS011;15675;52.870;-1.416;2022-10-24T12:47:41;7.18;;;1.40;;
28447;SDS011;15675;52.870;-1.416;2022-10-24T13:00:56;13.00;;;2.53;;
28447;SDS011;15675;52.870;-1.416;2022-10-24T13:12:05;8.77;;;1.60;;
28447;SDS011;15675;52.870;-1.416;2022-10-24T13:14:44;7.07;;;2.08;;
28447;SDS011;15675;52.870;-1.416;2022-10-24T13:17:30;9.82;;;2.00;;
28447;SDS011;15675;52.870;-1.416;2022-10-24T13:20:04;11.52;;;1.90;;
28447;SDS011;15675;52.870;-1.416;2022-10-24T13:22:39;10.18;;;1.70;;
28447;SDS011;15675;52.870;-1.416;2022-10-24T13:28:28;4.45;;;1.27;;
28447;SDS011;15675;52.870;-1.416;2022-10-24T13:30:46;13.43;;;1.50;;
28447;SDS011;15675;52.870;-1.416;2022-10-24T13:38:39;8.38;;;1.70;;
28447;SDS011;15675;52.870;-1.416;2022-10-24T13:41:12;8.18;;;1.45;;
28447;SDS011;15675;52.870;-1.416;2022-10-24T13:44:06;6.35;;;1.67;;
28447;SDS011;15675;52.870;-1.416;2022-10-24T13:47:07;6.40;;;1.40;;
28447;SDS011;15675;52.870;-1.416;2022-10-24T13:55:17;5.15;;;1.25;;
28447;SDS011;15675;52.870;-1.416;2022-10-24T14:00:34;5.25;;;1.63;;
28447;SDS011;15675;52.870;-1.416;2022-10-24T14:03:02;9.30;;;1.48;;
28447;SDS011;15675;52.870;-1.416;2022-10-24T14:05:35;12.13;;;1.58;;
28447;SDS011;15675;52.870;-1.416;2022-10-24T14:08:04;10.70;;;1.50;;
28447;SDS011;15675;52.870;-1.416;2022-10-24T14:10:32;7.55;;;1.75;;
28447;SDS011;15675;52.870;-1.416;2022-10-24T14:12:58;6.78;;;1.38;;
28447;SDS011;15675;52.870;-1.416;2022-10-24T14:15:29;4.82;;;1.58;;
28447;SDS011;15675;52.870;-1.416;2022-10-24T14:17:56;7.28;;;1.42;;
28447;SDS011;15675;52.870;-1.416;2022-10-24T14:20:28;7.15;;;1.42;;
28447;SDS011;15675;52.870;-1.416;2022-10-24T14:22:55;5.70;;;1.48;;
28447;SDS011;15675;52.870;-1.416;2022-10-24T14:25:21;3.38;;;1.00;;
28447;SDS011;15675;52.870;-1.416;2022-10-24T14:28:02;6.70;;;1.30;;
28447;SDS011;15675;52.870;-1.416;2022-10-24T14:30:33;3.35;;;1.10;;
28447;SDS011;15675;52.870;-1.416;2022-10-24T14:35:53;5.63;;;1.17;;
28447;SDS011;15675;52.870;-1.416;2022-10-24T14:38:20;5.05;;;1.20;;
28447;SDS011;15675;52.870;-1.416;2022-10-24T14:40:47;4.50;;;0.95;;
28447;SDS011;15675;52.870;-1.416;2022-10-24T14:43:15;2.92;;;0.93;;
28447;SDS011;15675;52.870;-1.416;2022-10-24T14:46:00;3.00;;;0.82;;
28447;SDS011;15675;52.870;-1.416;2022-10-24T14:48:39;2.95;;;0.90;;
28447;SDS011;15675;52.870;-1.416;2022-10-24T14:51:28;4.38;;;0.80;;
28447;SDS011;15675;52.870;-1.416;2022-10-24T14:53:56;6.00;;;1.15;;
28447;SDS011;15675;52.870;-1.416;2022-10-24T14:56:31;3.38;;;1.00;;
28447;SDS011;15675;52.870;-1.416;2022-10-24T14:59:00;2.50;;;1.15;;
28447;SDS011;15675;52.870;-1.416;2022-10-24T15:01:28;4.03;;;0.80;;
28447;SDS011;15675;52.870;-1.416;2022-10-24T15:06:25;3.65;;;0.82;;
28447;SDS011;15675;52.870;-1.416;2022-10-24T15:09:03;4.10;;;1.13;;
28447;SDS011;15675;52.870;-1.416;2022-10-24T15:11:45;6.90;;;1.30;;
28447;SDS011;15675;52.870;-1.416;2022-10-24T15:14:58;2.65;;;1.13;;
28447;SDS011;15675;52.870;-1.416;2022-10-24T15:19:49;3.78;;;1.08;;
28447;SDS011;15675;52.870;-1.416;2022-10-24T15:24:58;4.93;;;1.30;;
28447;SDS011;15675;52.870;-1.416;2022-10-24T15:27:27;7.40;;;1.60;;
28447;SDS011;15675;52.870;-1.416;2022-10-24T15:29:54;7.07;;;1.30;;
28447;SDS011;15675;52.870;-1.416;2022-10-24T15:32:20;4.32;;;1.15;;
28447;SDS011;15675;52.870;-1.416;2022-10-24T15:34:47;6.43;;;1.00;;
28447;SDS011;15675;52.870;-1.416;2022-10-24T15:37:19;5.15;;;1.08;;
28447;SDS011;15675;52.870;-1.416;2022-10-24T15:39:47;4.47;;;1.40;;
28447;SDS011;15675;52.870;-1.416;2022-10-24T15:42:13;4.07;;;1.00;;
28447;SDS011;15675;52.870;-1.416;2022-10-24T15:44:39;4.93;;;1.02;;
28447;SDS011;15675;52.870;-1.416;2022-10-24T15:47:05;4.10;;;0.90;;
28447;SDS011;15675;52.870;-1.416;2022-10-24T15:49:32;5.75;;;1.15;;
28447;SDS011;15675;52.870;-1.416;2022-10-24T15:51:59;3.70;;;1.08;;
28447;SDS011;15675;52.870;-1.416;2022-10-24T15:54:24;8.00;;;1.15;;
28447;SDS011;15675;52.870;-1.416;2022-10-24T15:56:51;2.38;;;0.88;;
28447;SDS011;15675;52.870;-1.416;2022-10-24T15:59:18;3.70;;;0.98;;
28447;SDS011;15675;52.870;-1.416;2022-10-24T16:01:48;4.95;;;1.10;;
28447;SDS011;15675;52.870;-1.416;2022-10-24T16:04:17;4.23;;;1.10;;
28447;SDS011;15675;52.870;-1.416;2022-10-24T16:06:44;6.75;;;1.10;;
28447;SDS011;15675;52.870;-1.416;2022-10-24T16:09:14;2.17;;;0.85;;
28447;SDS011;15675;52.870;-1.416;2022-10-24T16:11:45;5.22;;;1.13;;
28447;SDS011;15675;52.870;-1.416;2022-10-24T16:14:15;2.85;;;0.70;;
28447;SDS011;15675;52.870;-1.416;2022-10-24T16:16:42;5.95;;;1.10;;
28447;SDS011;15675;52.870;-1.416;2022-10-24T16:19:08;2.85;;;0.85;;
28447;SDS011;15675;52.870;-1.416;2022-10-24T16:21:34;3.22;;;1.08;;
28447;SDS011;15675;52.870;-1.416;2022-10-24T16:24:00;8.20;;;1.38;;
28447;SDS011;15675;52.870;-1.416;2022-10-24T16:26:25;9.57;;;1.75;;
28447;SDS011;15675;52.870;-1.416;2022-10-24T16:28:51;4.70;;;1.05;;
28447;SDS011;15675;52.870;-1.416;2022-10-24T16:31:17;9.95;;;1.10;;
28447;SDS011;15675;52.870;-1.416;2022-10-24T16:33:43;5.95;;;1.27;;
28447;SDS011;15675;52.870;-1.416;2022-10-24T16:36:13;13.23;;;1.30;;
28447;SDS011;15675;52.870;-1.416;2022-10-24T16:38:39;7.07;;;1.20;;
28447;SDS011;15675;52.870;-1.416;2022-10-24T16:41:04;8.80;;;1.35;;
28447;SDS011;15675;52.870;-1.416;2022-10-24T16:43:30;6.15;;;1.58;;
28447;SDS011;15675;52.870;-1.416;2022-10-24T16:45:56;4.72;;;0.98;;
28447;SDS011;15675;52.870;-1.416;2022-10-24T16:48:23;7.38;;;1.58;;
28447;SDS011;15675;52.870;-1.416;2022-10-24T16:50:49;9.15;;;1.92;;
28447;SDS011;15675;52.870;-1.416;2022-10-24T16:53:14;8.65;;;2.17;;
28447;SDS011;15675;52.870;-1.416;2022-10-24T16:56:00;7.75;;;1.67;;
28447;SDS011;15675;52.870;-1.416;2022-10-24T16:58:27;9.73;;;1.88;;
28447;SDS011;15675;52.870;-1.416;2022-10-24T17:00:59;10.10;;;1.95;;
28447;SDS011;15675;52.870;-1.416;2022-10-24T17:03:27;5.93;;;3.10;;
28447;SDS011;15675;52.870;-1.416;2022-10-24T17:05:52;3.80;;;1.33;;
28447;SDS011;15675;52.870;-1.416;2022-10-24T17:08:18;16.65;;;2.13;;